sensor_id;sensor_type;location;lat;lon;timestamp;P1;durP1;ratioP1;P2;durP2;ratioP2
54193;SDS011;40102;50.906;6.972;2023-08-08T00:00:53;1.65;;;1.33;;
54193;SDS011;40102;50.906;6.972;2023-08-08T00:03:19;1.48;;;1.08;;
54193;SDS011;40102;50.906;6.972;2023-08-08T00:05:44;1.92;;;0.90;;
54193;SDS011;40102;50.906;6.972;2023-08-08T00:08:10;1.20;;;0.80;;
54193;SDS011;40102;50.906;6.972;2023-08-08T00:10:35;1.30;;;0.90;;
54193;SDS011;40102;50.906;6.972;2023-08-08T00:13:01;1.33;;;0.93;;
54193;SDS011;40102;50.906;6.972;2023-08-08T00:15:26;1.27;;;0.70;;
54193;SDS011;40102;50.906;6.972;2023-08-08T00:17:51;1.05;;;0.98;;
54193;SDS011;40102;50.906;6.972;2023-08-08T00:20:17;1.85;;;0.90;;
54193;SDS011;40102;50.906;6.972;2023-08-08T00:22:42;3.17;;;1.20;;
54193;SDS011;40102;50.906;6.972;2023-08-08T00:25:07;1.92;;;1.00;;
54193;SDS011;40102;50.906;6.972;2023-08-08T00:27:34;1.85;;;1.00;;
54193;SDS011;40102;50.906;6.972;2023-08-08T00:30:00;3.35;;;1.20;;
54193;SDS011;40102;50.906;6.972;2023-08-08T00:32:26;4.28;;;1.17;;
54193;SDS011;40102;50.906;6.972;2023-08-08T00:34:51;2.97;;;1.10;;
54193;SDS011;40102;50.906;6.972;2023-08-08T00:37:17;2.05;;;1.17;;
54193;SDS011;40102;50.906;6.972;2023-08-08T00:39:42;2.85;;;1.20;;
54193;SDS011;40102;50.906;6.972;2023-08-08T00:42:11;2.30;;;1.20;;
54193;SDS011;40102;50.906;6.972;2023-08-08T00:44:39;1.55;;;1.23;;
54193;SDS011;40102;50.906;6.972;2023-08-08T00:47:06;2.47;;;1.30;;
54193;SDS011;40102;50.906;6.972;2023-08-08T00:49:35;1.83;;;1.13;;
54193;SDS011;40102;50.906;6.972;2023-08-08T00:52:02;3.10;;;1.50;;
54193;SDS011;40102;50.906;6.972;2023-08-08T00:54:27;2.03;;;1.10;;
54193;SDS011;40102;50.906;6.972;2023-08-08T00:56:53;2.55;;;1.30;;
54193;SDS011;40102;50.906;6.972;2023-08-08T00:59:19;2.42;;;1.38;;
54193;SDS011;40102;50.906;6.972;2023-08-08T01:01:44;3.75;;;1.48;;
54193;SDS011;40102;50.906;6.972;2023-08-08T01:04:11;1.70;;;1.40;;
54193;SDS011;40102;50.906;6.972;2023-08-08T01:09:45;5.05;;;1.75;;
54193;SDS011;40102;50.906;6.972;2023-08-08T01:12:32;1.83;;;1.30;;
54193;SDS011;40102;50.906;6.972;2023-08-08T01:15:04;1.80;;;1.30;;
54193;SDS011;40102;50.906;6.972;2023-08-08T01:17:31;2.53;;;1.45;;
54193;SDS011;40102;50.906;6.972;2023-08-08T01:19:58;5.25;;;1.70;;
54193;SDS011;40102;50.906;6.972;2023-08-08T01:22:25;2.55;;;1.52;;
54193;SDS011;40102;50.906;6.972;2023-08-08T01:24:57;6.47;;;1.60;;
54193;SDS011;40102;50.906;6.972;2023-08-08T01:27:24;4.57;;;1.50;;
54193;SDS011;40102;50.906;6.972;2023-08-08T01:29:49;3.67;;;1.52;;
54193;SDS011;40102;50.906;6.972;2023-08-08T01:32:15;2.58;;;1.42;;
54193;SDS011;40102;50.906;6.972;2023-08-08T01:34:40;2.28;;;1.20;;
54193;SDS011;40102;50.906;6.972;2023-08-08T01:37:10;3.65;;;1.60;;
54193;SDS011;40102;50.906;6.972;2023-08-08T01:39:45;3.53;;;1.52;;
54193;SDS011;40102;50.906;6.972;2023-08-08T01:42:12;2.03;;;1.40;;
54193;SDS011;40102;50.906;6.972;2023-08-08T01:44:41;2.45;;;1.42;;
54193;SDS011;40102;50.906;6.972;2023-08-08T01:47:07;5.57;;;1.50;;
54193;SDS011;40102;50.906;6.972;2023-08-08T01:49:33;3.40;;;1.60;;
54193;SDS011;40102;50.906;6.972;2023-08-08T01:51:58;3.78;;;1.60;;
54193;SDS011;40102;50.906;6.972;2023-08-08T01:54:24;3.03;;;1.50;;
54193;SDS011;40102;50.906;6.972;2023-08-08T01:56:49;1.95;;;1.30;;
54193;SDS011;40102;50.906;6.972;2023-08-08T01:59:15;3.70;;;1.50;;
54193;SDS011;40102;50.906;6.972;2023-08-08T02:01:40;4.22;;;1.50;;
54193;SDS011;40102;50.906;6.972;2023-08-08T02:04:05;4.30;;;1.60;;
54193;SDS011;40102;50.906;6.972;2023-08-08T02:06:31;7.63;;;1.50;;
54193;SDS011;40102;50.906;6.972;2023-08-08T02:08:57;4.00;;;1.33;;
54193;SDS011;40102;50.906;6.972;2023-08-08T02:11:23;3.05;;;1.55;;
54193;SDS011;40102;50.906;6.972;2023-08-08T02:13:48;3.58;;;1.60;;
54193;SDS011;40102;50.906;6.972;2023-08-08T02:16:14;3.47;;;1.48;;
54193;SDS011;40102;50.906;6.972;2023-08-08T02:18:39;3.55;;;1.48;;
54193;SDS011;40102;50.906;6.972;2023-08-08T02:21:05;4.40;;;1.20;;
54193;SDS011;40102;50.906;6.972;2023-08-08T02:23:31;3.03;;;1.42;;
54193;SDS011;40102;50.906;6.972;2023-08-08T02:25:57;2.08;;;1.30;;
54193;SDS011;40102;50.906;6.972;2023-08-08T02:28:22;3.20;;;1.38;;
54193;SDS011;40102;50.906;6.972;2023-08-08T02:30:47;2.05;;;1.50;;
54193;SDS011;40102;50.906;6.972;2023-08-08T02:33:13;5.15;;;1.80;;
54193;SDS011;40102;50.906;6.972;2023-08-08T02:35:38;3.90;;;1.70;;
54193;SDS011;40102;50.906;6.972;2023-08-08T02:38:03;2.38;;;1.60;;
54193;SDS011;40102;50.906;6.972;2023-08-08T02:40:29;2.88;;;1.60;;
54193;SDS011;40102;50.906;6.972;2023-08-08T02:42:54;3.92;;;1.50;;
54193;SDS011;40102;50.906;6.972;2023-08-08T02:45:19;2.33;;;1.48;;
54193;SDS011;40102;50.906;6.972;2023-08-08T02:47:45;2.47;;;1.58;;
54193;SDS011;40102;50.906;6.972;2023-08-08T02:50:10;4.32;;;2.20;;
54193;SDS011;40102;50.906;6.972;2023-08-08T02:52:35;4.18;;;1.67;;
54193;SDS011;40102;50.906;6.972;2023-08-08T02:55:01;3.33;;;1.60;;
54193;SDS011;40102;50.906;6.972;2023-08-08T02:57:27;4.15;;;1.50;;
54193;SDS011;40102;50.906;6.972;2023-08-08T02:59:53;5.68;;;1.88;;
54193;SDS011;40102;50.906;6.972;2023-08-08T03:02:18;3.35;;;1.50;;
54193;SDS011;40102;50.906;6.972;2023-08-08T03:04:43;3.42;;;1.45;;
54193;SDS011;40102;50.906;6.972;2023-08-08T03:07:09;3.78;;;1.65;;
54193;SDS011;40102;50.906;6.972;2023-08-08T03:09:34;3.25;;;1.40;;
54193;SDS011;40102;50.906;6.972;2023-08-08T03:12:00;3.17;;;1.40;;
54193;SDS011;40102;50.906;6.972;2023-08-08T03:14:28;1.83;;;1.15;;
54193;SDS011;40102;50.906;6.972;2023-08-08T03:16:54;2.40;;;1.15;;
54193;SDS011;40102;50.906;6.972;2023-08-08T03:19:20;1.88;;;1.10;;
54193;SDS011;40102;50.906;6.972;2023-08-08T03:21:45;5.38;;;1.38;;
54193;SDS011;40102;50.906;6.972;2023-08-08T03:24:10;3.28;;;1.60;;
54193;SDS011;40102;50.906;6.972;2023-08-08T03:26:36;3.10;;;1.30;;
54193;SDS011;40102;50.906;6.972;2023-08-08T03:29:01;1.67;;;1.20;;
54193;SDS011;40102;50.906;6.972;2023-08-08T03:31:26;2.53;;;1.17;;
54193;SDS011;40102;50.906;6.972;2023-08-08T03:33:52;2.10;;;1.55;;
54193;SDS011;40102;50.906;6.972;2023-08-08T03:36:17;2.88;;;1.50;;
54193;SDS011;40102;50.906;6.972;2023-08-08T03:38:43;3.80;;;1.13;;
54193;SDS011;40102;50.906;6.972;2023-08-08T03:41:11;3.35;;;1.15;;
54193;SDS011;40102;50.906;6.972;2023-08-08T03:43:37;2.17;;;1.20;;
54193;SDS011;40102;50.906;6.972;2023-08-08T03:46:03;1.85;;;1.00;;
54193;SDS011;40102;50.906;6.972;2023-08-08T03:48:28;2.80;;;1.20;;
54193;SDS011;40102;50.906;6.972;2023-08-08T03:50:54;2.08;;;1.23;;
54193;SDS011;40102;50.906;6.972;2023-08-08T03:53:19;1.73;;;1.33;;
54193;SDS011;40102;50.906;6.972;2023-08-08T03:55:45;2.03;;;1.17;;
54193;SDS011;40102;50.906;6.972;2023-08-08T03:58:10;2.70;;;1.45;;
54193;SDS011;40102;50.906;6.972;2023-08-08T04:00:36;2.67;;;1.20;;
54193;SDS011;40102;50.906;6.972;2023-08-08T04:03:04;3.53;;;1.17;;
54193;SDS011;40102;50.906;6.972;2023-08-08T04:05:30;2.42;;;1.33;;
54193;SDS011;40102;50.906;6.972;2023-08-08T04:07:55;1.77;;;1.20;;
54193;SDS011;40102;50.906;6.972;2023-08-08T04:10:20;3.97;;;1.60;;
54193;SDS011;40102;50.906;6.972;2023-08-08T04:12:46;3.85;;;1.27;;
54193;SDS011;40102;50.906;6.972;2023-08-08T04:15:14;2.63;;;1.20;;
54193;SDS011;40102;50.906;6.972;2023-08-08T04:17:39;3.30;;;2.03;;
54193;SDS011;40102;50.906;6.972;2023-08-08T04:20:05;2.42;;;1.23;;
54193;SDS011;40102;50.906;6.972;2023-08-08T04:22:31;2.33;;;1.33;;
54193;SDS011;40102;50.906;6.972;2023-08-08T04:24:56;2.45;;;1.33;;
54193;SDS011;40102;50.906;6.972;2023-08-08T04:27:22;5.13;;;1.75;;
54193;SDS011;40102;50.906;6.972;2023-08-08T04:29:47;5.25;;;1.38;;
54193;SDS011;40102;50.906;6.972;2023-08-08T04:32:13;5.65;;;2.25;;
54193;SDS011;40102;50.906;6.972;2023-08-08T04:34:38;3.33;;;1.58;;
54193;SDS011;40102;50.906;6.972;2023-08-08T04:37:04;7.28;;;1.70;;
54193;SDS011;40102;50.906;6.972;2023-08-08T04:39:29;6.75;;;1.55;;
54193;SDS011;40102;50.906;6.972;2023-08-08T04:41:54;5.38;;;1.80;;
54193;SDS011;40102;50.906;6.972;2023-08-08T04:44:23;4.63;;;1.90;;
54193;SDS011;40102;50.906;6.972;2023-08-08T04:46:48;4.32;;;1.95;;
54193;SDS011;40102;50.906;6.972;2023-08-08T04:49:14;3.95;;;1.80;;
54193;SDS011;40102;50.906;6.972;2023-08-08T04:51:39;3.90;;;1.65;;
54193;SDS011;40102;50.906;6.972;2023-08-08T04:54:04;5.35;;;1.98;;
54193;SDS011;40102;50.906;6.972;2023-08-08T04:56:30;3.97;;;1.90;;
54193;SDS011;40102;50.906;6.972;2023-08-08T04:58:55;4.20;;;1.80;;
54193;SDS011;40102;50.906;6.972;2023-08-08T05:01:20;4.75;;;2.20;;
54193;SDS011;40102;50.906;6.972;2023-08-08T05:03:47;5.57;;;2.42;;
54193;SDS011;40102;50.906;6.972;2023-08-08T05:06:13;4.80;;;1.80;;
54193;SDS011;40102;50.906;6.972;2023-08-08T05:08:38;5.45;;;2.20;;
54193;SDS011;40102;50.906;6.972;2023-08-08T05:11:04;4.07;;;1.75;;
54193;SDS011;40102;50.906;6.972;2023-08-08T05:13:29;7.50;;;2.38;;
54193;SDS011;40102;50.906;6.972;2023-08-08T05:15:54;4.13;;;2.20;;
54193;SDS011;40102;50.906;6.972;2023-08-08T05:18:20;6.80;;;3.08;;
54193;SDS011;40102;50.906;6.972;2023-08-08T05:20:45;6.18;;;1.90;;
54193;SDS011;40102;50.906;6.972;2023-08-08T05:23:14;4.30;;;2.05;;
54193;SDS011;40102;50.906;6.972;2023-08-08T05:25:39;5.97;;;2.40;;
54193;SDS011;40102;50.906;6.972;2023-08-08T05:28:05;7.50;;;2.25;;
54193;SDS011;40102;50.906;6.972;2023-08-08T05:30:31;7.13;;;2.65;;
54193;SDS011;40102;50.906;6.972;2023-08-08T05:32:56;7.10;;;2.45;;
54193;SDS011;40102;50.906;6.972;2023-08-08T05:35:22;5.50;;;2.20;;
54193;SDS011;40102;50.906;6.972;2023-08-08T05:37:47;8.13;;;2.17;;
54193;SDS011;40102;50.906;6.972;2023-08-08T05:40:12;8.43;;;2.38;;
54193;SDS011;40102;50.906;6.972;2023-08-08T05:42:38;5.82;;;2.47;;
54193;SDS011;40102;50.906;6.972;2023-08-08T05:45:04;6.72;;;2.40;;
54193;SDS011;40102;50.906;6.972;2023-08-08T05:47:30;8.32;;;2.67;;
54193;SDS011;40102;50.906;6.972;2023-08-08T05:49:55;4.90;;;2.47;;
54193;SDS011;40102;50.906;6.972;2023-08-08T05:52:23;10.70;;;3.22;;
54193;SDS011;40102;50.906;6.972;2023-08-08T05:54:49;5.85;;;2.80;;
54193;SDS011;40102;50.906;6.972;2023-08-08T05:57:14;8.07;;;3.10;;
54193;SDS011;40102;50.906;6.972;2023-08-08T05:59:40;6.47;;;2.58;;
54193;SDS011;40102;50.906;6.972;2023-08-08T06:02:05;9.73;;;2.97;;
54193;SDS011;40102;50.906;6.972;2023-08-08T06:04:31;9.02;;;3.33;;
54193;SDS011;40102;50.906;6.972;2023-08-08T06:06:56;10.27;;;3.42;;
54193;SDS011;40102;50.906;6.972;2023-08-08T06:09:22;6.78;;;2.45;;
54193;SDS011;40102;50.906;6.972;2023-08-08T06:11:47;6.55;;;3.05;;
54193;SDS011;40102;50.906;6.972;2023-08-08T06:14:13;9.35;;;3.05;;
54193;SDS011;40102;50.906;6.972;2023-08-08T06:16:38;5.15;;;2.20;;
54193;SDS011;40102;50.906;6.972;2023-08-08T06:19:04;6.63;;;2.60;;
54193;SDS011;40102;50.906;6.972;2023-08-08T06:21:29;5.13;;;2.60;;
54193;SDS011;40102;50.906;6.972;2023-08-08T06:23:54;7.45;;;2.70;;
54193;SDS011;40102;50.906;6.972;2023-08-08T06:26:20;7.57;;;2.35;;
54193;SDS011;40102;50.906;6.972;2023-08-08T06:28:46;8.27;;;2.55;;
54193;SDS011;40102;50.906;6.972;2023-08-08T06:31:12;3.85;;;1.92;;
54193;SDS011;40102;50.906;6.972;2023-08-08T06:33:38;4.22;;;2.45;;
54193;SDS011;40102;50.906;6.972;2023-08-08T06:36:04;6.90;;;2.35;;
54193;SDS011;40102;50.906;6.972;2023-08-08T06:38:29;6.93;;;2.30;;
54193;SDS011;40102;50.906;6.972;2023-08-08T06:40:58;6.38;;;2.05;;
54193;SDS011;40102;50.906;6.972;2023-08-08T06:43:27;9.10;;;2.10;;
54193;SDS011;40102;50.906;6.972;2023-08-08T06:45:53;8.25;;;2.05;;
54193;SDS011;40102;50.906;6.972;2023-08-08T06:48:18;8.15;;;2.20;;
54193;SDS011;40102;50.906;6.972;2023-08-08T06:50:43;5.55;;;2.15;;
54193;SDS011;40102;50.906;6.972;2023-08-08T06:53:09;5.68;;;1.88;;
54193;SDS011;40102;50.906;6.972;2023-08-08T06:55:34;8.10;;;2.10;;
54193;SDS011;40102;50.906;6.972;2023-08-08T06:58:00;5.15;;;1.80;;
54193;SDS011;40102;50.906;6.972;2023-08-08T07:00:25;9.00;;;1.95;;
54193;SDS011;40102;50.906;6.972;2023-08-08T07:02:52;6.68;;;1.83;;
54193;SDS011;40102;50.906;6.972;2023-08-08T07:05:18;10.10;;;2.67;;
54193;SDS011;40102;50.906;6.972;2023-08-08T07:07:43;3.80;;;1.80;;
54193;SDS011;40102;50.906;6.972;2023-08-08T07:10:09;8.50;;;2.38;;
54193;SDS011;40102;50.906;6.972;2023-08-08T07:12:36;4.60;;;1.80;;
54193;SDS011;40102;50.906;6.972;2023-08-08T07:15:02;8.27;;;2.30;;
54193;SDS011;40102;50.906;6.972;2023-08-08T07:17:27;5.85;;;1.58;;
54193;SDS011;40102;50.906;6.972;2023-08-08T07:19:53;3.75;;;1.70;;
54193;SDS011;40102;50.906;6.972;2023-08-08T07:22:18;9.63;;;2.15;;
54193;SDS011;40102;50.906;6.972;2023-08-08T07:24:47;5.57;;;1.85;;
54193;SDS011;40102;50.906;6.972;2023-08-08T07:27:12;5.00;;;1.95;;
54193;SDS011;40102;50.906;6.972;2023-08-08T07:29:37;4.95;;;1.90;;
54193;SDS011;40102;50.906;6.972;2023-08-08T07:32:03;7.88;;;1.98;;
54193;SDS011;40102;50.906;6.972;2023-08-08T07:34:33;5.93;;;2.10;;
54193;SDS011;40102;50.906;6.972;2023-08-08T07:36:59;4.10;;;2.08;;
54193;SDS011;40102;50.906;6.972;2023-08-08T07:39:25;5.45;;;2.03;;
54193;SDS011;40102;50.906;6.972;2023-08-08T07:42:00;7.85;;;2.00;;
54193;SDS011;40102;50.906;6.972;2023-08-08T07:44:26;6.35;;;2.05;;
54193;SDS011;40102;50.906;6.972;2023-08-08T07:46:51;5.75;;;2.40;;
54193;SDS011;40102;50.906;6.972;2023-08-08T07:49:17;3.38;;;1.90;;
54193;SDS011;40102;50.906;6.972;2023-08-08T07:51:43;6.75;;;2.58;;
54193;SDS011;40102;50.906;6.972;2023-08-08T07:54:08;7.57;;;2.78;;
54193;SDS011;40102;50.906;6.972;2023-08-08T07:56:35;6.13;;;2.90;;
54193;SDS011;40102;50.906;6.972;2023-08-08T07:59:01;7.13;;;2.17;;
54193;SDS011;40102;50.906;6.972;2023-08-08T08:01:27;7.85;;;2.60;;
54193;SDS011;40102;50.906;6.972;2023-08-08T08:03:53;8.98;;;2.53;;
54193;SDS011;40102;50.906;6.972;2023-08-08T08:06:19;6.10;;;2.83;;
54193;SDS011;40102;50.906;6.972;2023-08-08T08:08:44;5.97;;;2.67;;
54193;SDS011;40102;50.906;6.972;2023-08-08T08:11:09;6.85;;;2.60;;
54193;SDS011;40102;50.906;6.972;2023-08-08T08:13:36;8.00;;;3.08;;
54193;SDS011;40102;50.906;6.972;2023-08-08T08:16:01;11.45;;;2.92;;
54193;SDS011;40102;50.906;6.972;2023-08-08T08:18:26;8.30;;;2.78;;
54193;SDS011;40102;50.906;6.972;2023-08-08T08:20:53;6.55;;;2.78;;
54193;SDS011;40102;50.906;6.972;2023-08-08T08:23:19;7.03;;;2.80;;
54193;SDS011;40102;50.906;6.972;2023-08-08T08:25:44;6.50;;;2.95;;
54193;SDS011;40102;50.906;6.972;2023-08-08T08:28:10;5.15;;;2.47;;
54193;SDS011;40102;50.906;6.972;2023-08-08T08:30:35;7.88;;;2.97;;
54193;SDS011;40102;50.906;6.972;2023-08-08T08:33:01;10.70;;;3.15;;
54193;SDS011;40102;50.906;6.972;2023-08-08T08:35:29;5.38;;;2.60;;
54193;SDS011;40102;50.906;6.972;2023-08-08T08:37:54;7.88;;;3.35;;
54193;SDS011;40102;50.906;6.972;2023-08-08T08:40:19;4.80;;;2.60;;
54193;SDS011;40102;50.906;6.972;2023-08-08T08:42:45;5.85;;;2.70;;
54193;SDS011;40102;50.906;6.972;2023-08-08T08:45:12;6.82;;;2.85;;
54193;SDS011;40102;50.906;6.972;2023-08-08T08:47:40;6.00;;;3.33;;
54193;SDS011;40102;50.906;6.972;2023-08-08T08:50:07;15.20;;;2.85;;
54193;SDS011;40102;50.906;6.972;2023-08-08T08:52:33;9.18;;;2.92;;
54193;SDS011;40102;50.906;6.972;2023-08-08T08:54:58;8.07;;;2.83;;
54193;SDS011;40102;50.906;6.972;2023-08-08T08:57:24;5.63;;;2.63;;
54193;SDS011;40102;50.906;6.972;2023-08-08T08:59:50;8.63;;;2.80;;
54193;SDS011;40102;50.906;6.972;2023-08-08T09:02:17;9.23;;;3.08;;
54193;SDS011;40102;50.906;6.972;2023-08-08T09:04:43;8.50;;;2.83;;
54193;SDS011;40102;50.906;6.972;2023-08-08T09:07:10;6.93;;;2.63;;
54193;SDS011;40102;50.906;6.972;2023-08-08T09:09:37;8.10;;;2.65;;
54193;SDS011;40102;50.906;6.972;2023-08-08T09:12:03;8.77;;;2.80;;
54193;SDS011;40102;50.906;6.972;2023-08-08T09:14:30;5.95;;;2.60;;
54193;SDS011;40102;50.906;6.972;2023-08-08T09:16:55;5.15;;;2.45;;
54193;SDS011;40102;50.906;6.972;2023-08-08T09:19:22;7.43;;;2.53;;
54193;SDS011;40102;50.906;6.972;2023-08-08T09:21:49;6.65;;;2.88;;
54193;SDS011;40102;50.906;6.972;2023-08-08T09:24:19;4.75;;;2.60;;
54193;SDS011;40102;50.906;6.972;2023-08-08T09:26:45;5.18;;;2.85;;
54193;SDS011;40102;50.906;6.972;2023-08-08T09:29:11;4.50;;;2.80;;
54193;SDS011;40102;50.906;6.972;2023-08-08T09:31:38;5.57;;;2.75;;
54193;SDS011;40102;50.906;6.972;2023-08-08T09:34:04;6.65;;;2.30;;
54193;SDS011;40102;50.906;6.972;2023-08-08T09:36:31;7.13;;;2.70;;
54193;SDS011;40102;50.906;6.972;2023-08-08T09:38:57;7.35;;;2.67;;
54193;SDS011;40102;50.906;6.972;2023-08-08T09:41:23;5.35;;;2.33;;
54193;SDS011;40102;50.906;6.972;2023-08-08T09:43:52;5.70;;;2.85;;
54193;SDS011;40102;50.906;6.972;2023-08-08T09:46:18;7.32;;;2.40;;
54193;SDS011;40102;50.906;6.972;2023-08-08T09:48:45;4.32;;;2.17;;
54193;SDS011;40102;50.906;6.972;2023-08-08T09:51:11;5.45;;;2.30;;
54193;SDS011;40102;50.906;6.972;2023-08-08T09:53:37;5.32;;;2.10;;
54193;SDS011;40102;50.906;6.972;2023-08-08T09:56:04;3.38;;;1.80;;
54193;SDS011;40102;50.906;6.972;2023-08-08T09:58:30;5.25;;;2.15;;
54193;SDS011;40102;50.906;6.972;2023-08-08T10:00:56;5.78;;;2.13;;
54193;SDS011;40102;50.906;6.972;2023-08-08T10:03:22;4.95;;;2.03;;
54193;SDS011;40102;50.906;6.972;2023-08-08T10:05:48;11.50;;;2.40;;
54193;SDS011;40102;50.906;6.972;2023-08-08T10:08:16;2.65;;;1.73;;
54193;SDS011;40102;50.906;6.972;2023-08-08T10:10:44;4.35;;;2.05;;
54193;SDS011;40102;50.906;6.972;2023-08-08T10:13:10;7.18;;;2.40;;
54193;SDS011;40102;50.906;6.972;2023-08-08T10:15:47;3.80;;;1.77;;
54193;SDS011;40102;50.906;6.972;2023-08-08T10:18:13;6.07;;;2.10;;
54193;SDS011;40102;50.906;6.972;2023-08-08T10:20:40;5.25;;;1.95;;
54193;SDS011;40102;50.906;6.972;2023-08-08T10:23:07;5.75;;;2.00;;
54193;SDS011;40102;50.906;6.972;2023-08-08T10:25:33;6.07;;;1.92;;
54193;SDS011;40102;50.906;6.972;2023-08-08T10:28:17;4.35;;;2.08;;
54193;SDS011;40102;50.906;6.972;2023-08-08T10:30:48;3.90;;;2.00;;
54193;SDS011;40102;50.906;6.972;2023-08-08T10:33:27;2.67;;;1.63;;
54193;SDS011;40102;50.906;6.972;2023-08-08T10:36:04;6.50;;;1.90;;
54193;SDS011;40102;50.906;6.972;2023-08-08T10:38:40;5.38;;;1.70;;
54193;SDS011;40102;50.906;6.972;2023-08-08T10:41:12;5.72;;;1.80;;
54193;SDS011;40102;50.906;6.972;2023-08-08T10:43:46;4.32;;;1.65;;
54193;SDS011;40102;50.906;6.972;2023-08-08T10:46:22;8.48;;;1.60;;
54193;SDS011;40102;50.906;6.972;2023-08-08T10:48:52;4.15;;;1.60;;
54193;SDS011;40102;50.906;6.972;2023-08-08T10:51:19;12.05;;;1.85;;
54193;SDS011;40102;50.906;6.972;2023-08-08T10:53:45;5.13;;;2.00;;
54193;SDS011;40102;50.906;6.972;2023-08-08T10:56:14;4.15;;;1.73;;
54193;SDS011;40102;50.906;6.972;2023-08-08T10:58:40;4.20;;;1.75;;
54193;SDS011;40102;50.906;6.972;2023-08-08T11:01:06;6.18;;;1.70;;
54193;SDS011;40102;50.906;6.972;2023-08-08T11:03:37;6.20;;;1.67;;
54193;SDS011;40102;50.906;6.972;2023-08-08T11:06:05;4.20;;;1.40;;
54193;SDS011;40102;50.906;6.972;2023-08-08T11:08:31;4.88;;;1.90;;
54193;SDS011;40102;50.906;6.972;2023-08-08T11:10:58;3.10;;;1.30;;
54193;SDS011;40102;50.906;6.972;2023-08-08T11:13:24;2.58;;;1.35;;
54193;SDS011;40102;50.906;6.972;2023-08-08T11:15:50;7.00;;;1.30;;
54193;SDS011;40102;50.906;6.972;2023-08-08T11:18:16;5.07;;;1.45;;
54193;SDS011;40102;50.906;6.972;2023-08-08T11:20:42;3.22;;;1.50;;
54193;SDS011;40102;50.906;6.972;2023-08-08T11:23:07;3.53;;;1.65;;
54193;SDS011;40102;50.906;6.972;2023-08-08T11:25:35;2.92;;;1.20;;
54193;SDS011;40102;50.906;6.972;2023-08-08T11:28:01;4.82;;;1.58;;
54193;SDS011;40102;50.906;6.972;2023-08-08T11:30:28;3.10;;;1.35;;
54193;SDS011;40102;50.906;6.972;2023-08-08T11:32:55;3.95;;;1.48;;
54193;SDS011;40102;50.906;6.972;2023-08-08T11:35:21;4.07;;;1.45;;
54193;SDS011;40102;50.906;6.972;2023-08-08T11:37:51;3.17;;;1.45;;
54193;SDS011;40102;50.906;6.972;2023-08-08T11:40:18;5.82;;;1.40;;
54193;SDS011;40102;50.906;6.972;2023-08-08T11:42:45;5.50;;;1.55;;
54193;SDS011;40102;50.906;6.972;2023-08-08T11:45:11;3.08;;;1.30;;
54193;SDS011;40102;50.906;6.972;2023-08-08T11:47:38;3.80;;;1.50;;
54193;SDS011;40102;50.906;6.972;2023-08-08T11:50:05;3.65;;;1.65;;
54193;SDS011;40102;50.906;6.972;2023-08-08T11:52:32;5.68;;;1.55;;
54193;SDS011;40102;50.906;6.972;2023-08-08T11:55:01;9.05;;;2.42;;
54193;SDS011;40102;50.906;6.972;2023-08-08T11:57:27;2.85;;;1.33;;
54193;SDS011;40102;50.906;6.972;2023-08-08T11:59:53;3.35;;;1.50;;
54193;SDS011;40102;50.906;6.972;2023-08-08T12:02:18;4.57;;;1.13;;
54193;SDS011;40102;50.906;6.972;2023-08-08T12:04:47;5.57;;;1.50;;
54193;SDS011;40102;50.906;6.972;2023-08-08T12:07:12;3.53;;;1.55;;
54193;SDS011;40102;50.906;6.972;2023-08-08T12:09:38;3.75;;;1.50;;
54193;SDS011;40102;50.906;6.972;2023-08-08T12:12:04;7.05;;;1.60;;
54193;SDS011;40102;50.906;6.972;2023-08-08T12:14:36;1.88;;;1.13;;
54193;SDS011;40102;50.906;6.972;2023-08-08T12:17:02;5.88;;;1.60;;
54193;SDS011;40102;50.906;6.972;2023-08-08T12:19:28;4.68;;;1.38;;
54193;SDS011;40102;50.906;6.972;2023-08-08T12:21:54;4.18;;;1.30;;
54193;SDS011;40102;50.906;6.972;2023-08-08T12:24:19;4.57;;;1.30;;
54193;SDS011;40102;50.906;6.972;2023-08-08T12:26:45;2.92;;;1.02;;
54193;SDS011;40102;50.906;6.972;2023-08-08T12:29:11;4.22;;;1.48;;
54193;SDS011;40102;50.906;6.972;2023-08-08T12:31:37;3.35;;;1.10;;
54193;SDS011;40102;50.906;6.972;2023-08-08T12:34:03;6.60;;;2.03;;
54193;SDS011;40102;50.906;6.972;2023-08-08T12:36:29;4.60;;;1.38;;
54193;SDS011;40102;50.906;6.972;2023-08-08T12:38:55;4.20;;;1.17;;
54193;SDS011;40102;50.906;6.972;2023-08-08T12:41:20;3.90;;;1.60;;
54193;SDS011;40102;50.906;6.972;2023-08-08T12:43:45;5.38;;;1.30;;
54193;SDS011;40102;50.906;6.972;2023-08-08T12:46:11;3.03;;;1.15;;
54193;SDS011;40102;50.906;6.972;2023-08-08T12:48:36;2.70;;;1.20;;
54193;SDS011;40102;50.906;6.972;2023-08-08T12:51:01;5.18;;;1.45;;
54193;SDS011;40102;50.906;6.972;2023-08-08T12:53:27;4.28;;;1.23;;
54193;SDS011;40102;50.906;6.972;2023-08-08T12:55:53;4.10;;;1.23;;
54193;SDS011;40102;50.906;6.972;2023-08-08T12:58:18;4.07;;;1.20;;
54193;SDS011;40102;50.906;6.972;2023-08-08T13:00:44;2.72;;;1.10;;
54193;SDS011;40102;50.906;6.972;2023-08-08T13:03:10;4.43;;;1.35;;
54193;SDS011;40102;50.906;6.972;2023-08-08T13:05:37;5.80;;;1.40;;
54193;SDS011;40102;50.906;6.972;2023-08-08T13:08:03;2.05;;;1.10;;
54193;SDS011;40102;50.906;6.972;2023-08-08T13:10:28;1.85;;;1.10;;
54193;SDS011;40102;50.906;6.972;2023-08-08T13:12:54;5.75;;;1.40;;
54193;SDS011;40102;50.906;6.972;2023-08-08T13:15:20;1.83;;;1.15;;
54193;SDS011;40102;50.906;6.972;2023-08-08T13:17:45;4.40;;;1.13;;
54193;SDS011;40102;50.906;6.972;2023-08-08T13:20:11;3.35;;;1.10;;
54193;SDS011;40102;50.906;6.972;2023-08-08T13:22:37;3.33;;;1.10;;
54193;SDS011;40102;50.906;6.972;2023-08-08T13:25:03;3.70;;;1.17;;
54193;SDS011;40102;50.906;6.972;2023-08-08T13:27:30;2.33;;;1.00;;
54193;SDS011;40102;50.906;6.972;2023-08-08T13:29:55;3.90;;;1.48;;
54193;SDS011;40102;50.906;6.972;2023-08-08T13:32:22;2.45;;;1.10;;
54193;SDS011;40102;50.906;6.972;2023-08-08T13:34:47;3.28;;;1.30;;
54193;SDS011;40102;50.906;6.972;2023-08-08T13:37:13;3.03;;;1.10;;
54193;SDS011;40102;50.906;6.972;2023-08-08T13:39:38;2.80;;;1.08;;
54193;SDS011;40102;50.906;6.972;2023-08-08T13:42:03;7.50;;;1.17;;
54193;SDS011;40102;50.906;6.972;2023-08-08T13:44:29;3.30;;;1.15;;
54193;SDS011;40102;50.906;6.972;2023-08-08T13:46:54;2.70;;;1.02;;
54193;SDS011;40102;50.906;6.972;2023-08-08T13:49:23;3.25;;;1.10;;
54193;SDS011;40102;50.906;6.972;2023-08-08T13:51:51;3.38;;;1.10;;
54193;SDS011;40102;50.906;6.972;2023-08-08T13:54:17;2.63;;;1.17;;
54193;SDS011;40102;50.906;6.972;2023-08-08T13:56:43;5.45;;;1.40;;
54193;SDS011;40102;50.906;6.972;2023-08-08T13:59:09;4.68;;;1.30;;
54193;SDS011;40102;50.906;6.972;2023-08-08T14:01:34;5.80;;;1.45;;
54193;SDS011;40102;50.906;6.972;2023-08-08T14:03:59;3.05;;;1.00;;
54193;SDS011;40102;50.906;6.972;2023-08-08T14:06:25;6.07;;;1.20;;
54193;SDS011;40102;50.906;6.972;2023-08-08T14:08:50;6.40;;;1.40;;
54193;SDS011;40102;50.906;6.972;2023-08-08T14:11:17;3.25;;;1.33;;
54193;SDS011;40102;50.906;6.972;2023-08-08T14:13:42;2.50;;;1.17;;
54193;SDS011;40102;50.906;6.972;2023-08-08T14:16:08;4.82;;;1.20;;
54193;SDS011;40102;50.906;6.972;2023-08-08T14:18:33;4.60;;;1.20;;
54193;SDS011;40102;50.906;6.972;2023-08-08T14:20:58;3.35;;;1.52;;
54193;SDS011;40102;50.906;6.972;2023-08-08T14:23:28;4.32;;;1.20;;
54193;SDS011;40102;50.906;6.972;2023-08-08T14:25:53;5.75;;;1.35;;
54193;SDS011;40102;50.906;6.972;2023-08-08T14:28:19;6.70;;;1.27;;
54193;SDS011;40102;50.906;6.972;2023-08-08T14:30:44;3.72;;;1.10;;
54193;SDS011;40102;50.906;6.972;2023-08-08T14:33:12;4.72;;;1.10;;
54193;SDS011;40102;50.906;6.972;2023-08-08T14:35:40;3.92;;;1.15;;
54193;SDS011;40102;50.906;6.972;2023-08-08T14:38:06;4.70;;;1.17;;
54193;SDS011;40102;50.906;6.972;2023-08-08T14:40:31;3.15;;;1.20;;
54193;SDS011;40102;50.906;6.972;2023-08-08T14:42:58;3.13;;;1.17;;
54193;SDS011;40102;50.906;6.972;2023-08-08T14:45:23;4.68;;;1.58;;